Time;durP1;ratioP1;P1;durP2;ratioP2;P2;SDS_P1;SDS_P2;PMS_P1;PMS_P2;Temp;Humidity;BMP_temperature;BMP_pressure;BME280_temperature;BME280_humidity;BME280_pressure;Samples;Min_cycle;Max_cycle;Signal;HPM_P1;HPM_P2
2022/07/30 00:02:21;;;;;;;6.55;5.82;;;16.00;99.90;;;;;;4992220;28;20058;-50
2022/07/30 00:04:46;;;;;;;7.80;5.95;;;16.00;99.90;;;;;;4992854;28;20490;-48
2022/07/30 00:07:12;;;;;;;7.40;6.47;;;15.90;99.90;;;;;;4993499;28;20051;-47
2022/07/30 00:09:38;;;;;;;6.60;4.88;;;15.90;99.90;;;;;;4990897;28;20137;-47
2022/07/30 00:12:05;;;;;;;7.00;6.13;;;15.80;99.90;;;;;;4996773;28;20046;-49
2022/07/30 00:14:31;;;;;;;8.90;6.50;;;15.80;99.90;;;;;;4997519;28;20199;-49
2022/07/30 00:16:56;;;;;;;7.55;6.05;;;15.70;99.90;;;;;;4975017;28;20073;-50
2022/07/30 00:19:22;;;;;;;9.20;6.53;;;15.70;99.90;;;;;;4998626;28;20085;-50
2022/07/30 00:21:47;;;;;;;6.75;5.90;;;15.60;99.90;;;;;;4996869;28;20449;-49
2022/07/30 00:24:13;;;;;;;7.65;6.57;;;15.60;99.90;;;;;;4991020;28;20038;-51
2022/07/30 00:26:39;;;;;;;8.77;6.07;;;15.60;99.90;;;;;;4995573;28;20103;-47
2022/07/30 00:29:04;;;;;;;6.93;5.28;;;15.60;99.90;;;;;;4994415;28;20042;-51
2022/07/30 00:31:31;;;;;;;7.28;6.10;;;15.60;99.90;;;;;;4991197;28;20042;-51
2022/07/30 00:33:56;;;;;;;8.73;6.93;;;15.50;99.90;;;;;;4994813;28;20046;-48
2022/07/30 00:36:22;;;;;;;7.13;6.20;;;15.50;99.90;;;;;;4971817;28;20061;-48
2022/07/30 00:38:48;;;;;;;7.68;6.00;;;15.50;99.90;;;;;;4991229;28;20038;-47
2022/07/30 00:41:14;;;;;;;6.50;5.78;;;15.50;99.90;;;;;;4998046;28;20062;-46
2022/07/30 00:43:40;;;;;;;6.32;5.72;;;15.50;99.90;;;;;;4992887;28;20042;-48
2022/07/30 00:46:05;;;;;;;6.35;5.72;;;15.50;99.90;;;;;;4994070;28;20068;-50
2022/07/30 00:48:31;;;;;;;7.45;6.22;;;15.40;99.90;;;;;;4994562;28;20490;-48
2022/07/30 00:50:57;;;;;;;7.07;6.30;;;15.40;99.90;;;;;;4991240;28;20038;-48
2022/07/30 00:53:22;;;;;;;6.82;6.10;;;15.30;99.90;;;;;;4991446;28;20434;-50
2022/07/30 00:55:48;;;;;;;8.68;7.38;;;15.30;99.90;;;;;;4989865;28;20080;-49
2022/07/30 00:58:13;;;;;;;8.43;7.55;;;15.30;99.90;;;;;;4994685;28;20646;-51
2022/07/30 01:00:39;;;;;;;9.18;8.25;;;15.30;99.90;;;;;;4995575;28;20069;-49
2022/07/30 01:03:05;;;;;;;10.20;9.20;;;15.30;99.90;;;;;;4998538;28;20486;-49
2022/07/30 01:05:31;;;;;;;8.82;8.02;;;15.10;99.90;;;;;;4996984;28;20052;-46
2022/07/30 01:07:57;;;;;;;8.27;7.47;;;15.20;99.90;;;;;;4994893;28;20038;-48
2022/07/30 01:10:22;;;;;;;11.80;8.80;;;15.20;99.90;;;;;;4987075;28;20698;-48
2022/07/30 01:12:51;;;;;;;12.18;9.55;;;15.10;99.90;;;;;;4994848;28;20042;-47
2022/07/30 01:15:17;;;;;;;9.70;8.63;;;15.10;99.90;;;;;;4994766;28;20046;-47
2022/07/30 01:17:46;;;;;;;11.32;8.85;;;15.10;99.90;;;;;;4992638;28;20426;-50
2022/07/30 01:20:17;;;;;;;8.82;8.02;;;15.10;99.90;;;;;;4993306;28;20045;-50
2022/07/30 01:23:13;;;;;;;11.05;9.02;;;15.00;99.90;;;;;;4993948;28;20104;-47
2022/07/30 01:26:03;;;;;;;10.90;8.33;;;15.00;99.90;;;;;;4993901;28;20167;-47
2022/07/30 01:28:53;;;;;;;10.45;8.70;;;14.90;99.90;;;;;;4993895;28;20300;-46
2022/07/30 01:31:20;;;;;;;9.65;8.70;;;14.90;99.90;;;;;;4969828;28;20988;-46
2022/07/30 01:33:48;;;;;;;8.75;7.82;;;14.90;99.90;;;;;;4995217;28;20046;-46
2022/07/30 01:36:16;;;;;;;11.10;9.65;;;14.90;99.90;;;;;;4982253;28;20108;-47
2022/07/30 01:38:45;;;;;;;9.05;8.20;;;14.90;99.90;;;;;;4994907;28;20049;-47
2022/07/30 01:41:12;;;;;;;13.95;9.40;;;14.80;99.90;;;;;;4991825;28;20505;-46
2022/07/30 01:43:38;;;;;;;11.60;9.52;;;14.80;99.90;;;;;;4992577;28;20247;-50
2022/07/30 01:46:05;;;;;;;12.90;9.63;;;14.80;99.90;;;;;;4997140;28;20037;-47
2022/07/30 01:48:35;;;;;;;9.68;8.13;;;14.80;99.90;;;;;;4993081;28;20034;-46
2022/07/30 01:51:04;;;;;;;10.60;9.50;;;14.90;99.90;;;;;;4994916;28;20077;-47
2022/07/30 01:53:32;;;;;;;11.73;10.32;;;14.80;99.90;;;;;;4993775;28;20045;-46
2022/07/30 01:56:00;;;;;;;11.60;8.70;;;14.80;99.90;;;;;;4985983;28;20046;-49
2022/07/30 01:58:30;;;;;;;14.38;9.63;;;14.80;99.90;;;;;;4985589;28;20054;-49
2022/07/30 02:00:57;;;;;;;11.40;9.85;;;14.70;99.90;;;;;;4998347;28;20038;-46
2022/07/30 02:03:24;;;;;;;13.05;10.18;;;14.70;99.90;;;;;;4977198;28;20068;-47
2022/07/30 02:05:56;;;;;;;11.68;10.50;;;14.60;99.90;;;;;;4991795;28;20051;-46
2022/07/30 02:08:39;;;;;;;11.98;9.95;;;14.60;99.90;;;;;;4993977;28;20035;-48
2022/07/30 02:11:12;;;;;;;10.32;9.23;;;14.60;99.90;;;;;;4987909;28;20039;-47
2022/07/30 02:13:53;;;;;;;12.25;10.48;;;14.60;99.90;;;;;;4973832;28;20058;-49
2022/07/30 02:16:34;;;;;;;11.40;8.93;;;14.60;99.90;;;;;;4972157;28;20146;-46
2022/07/30 02:19:01;;;;;;;11.10;9.98;;;14.60;99.90;;;;;;4992845;28;20045;-47
2022/07/30 02:21:30;;;;;;;12.00;10.40;;;14.50;99.90;;;;;;4991335;28;20046;-46
2022/07/30 02:23:57;;;;;;;11.02;9.70;;;14.50;99.90;;;;;;4992307;28;20404;-46
2022/07/30 02:26:26;;;;;;;11.57;10.43;;;14.50;99.90;;;;;;4991546;28;20051;-47
2022/07/30 02:28:54;;;;;;;11.63;10.63;;;14.50;99.90;;;;;;4993918;28;20038;-47
2022/07/30 02:31:21;;;;;;;;;;;14.50;99.90;;;;;;4995439;28;20042;-45
2022/07/30 02:33:48;;;;;;;;;;;14.50;99.90;;;;;;4995181;28;20357;-48
2022/07/30 02:36:15;;;;;;;10.18;9.18;;;14.40;99.90;;;;;;4989293;28;19944;-47
2022/07/30 02:38:43;;;;;;;11.68;9.93;;;14.40;99.90;;;;;;4991351;28;20050;-46
2022/07/30 02:41:10;;;;;;;10.07;9.07;;;14.40;99.90;;;;;;4993162;28;20132;-48
2022/07/30 02:43:38;;;;;;;12.52;10.23;;;14.40;99.90;;;;;;4989853;28;20053;-48
2022/07/30 02:46:06;;;;;;;11.65;10.18;;;14.40;99.90;;;;;;4980081;28;20038;-47
2022/07/30 02:48:32;;;;;;;12.15;10.90;;;14.30;99.90;;;;;;4986978;28;20188;-46
2022/07/30 02:50:59;;;;;;;11.30;10.20;;;14.30;99.90;;;;;;4993043;28;20038;-49
2022/07/30 02:53:26;;;;;;;12.33;10.33;;;14.30;99.90;;;;;;4991643;28;20049;-50
2022/07/30 02:55:54;;;;;;;11.13;9.95;;;14.20;99.90;;;;;;4985958;28;20046;-50
2022/07/30 02:58:22;;;;;;;10.77;9.77;;;14.20;99.90;;;;;;4994780;28;20051;-50
2022/07/30 03:00:49;;;;;;;11.90;10.40;;;14.20;99.90;;;;;;4991287;28;20053;-48
2022/07/30 03:03:16;;;;;;;12.05;10.95;;;14.20;99.90;;;;;;4994921;28;20141;-47
2022/07/30 03:05:42;;;;;;;14.27;11.98;;;14.10;99.90;;;;;;4998391;28;20362;-46
2022/07/30 03:08:09;;;;;;;12.50;11.13;;;14.10;99.90;;;;;;4996007;28;20043;-49
2022/07/30 03:10:36;;;;;;;12.63;10.52;;;14.10;99.90;;;;;;4979074;28;20041;-46
2022/07/30 03:13:04;;;;;;;14.27;11.10;;;14.10;99.90;;;;;;4996271;28;20077;-49
2022/07/30 03:15:33;;;;;;;12.40;11.15;;;14.20;99.90;;;;;;4997509;28;22398;-47
2022/07/30 03:18:00;;;;;;;11.18;9.90;;;14.30;99.90;;;;;;4994848;28;20097;-47
2022/07/30 03:20:29;;;;;;;12.37;11.27;;;14.00;99.90;;;;;;4999043;28;20076;-47
2022/07/30 03:22:57;;;;;;;11.15;10.00;;;14.10;99.90;;;;;;4992031;28;20177;-51
2022/07/30 03:25:26;;;;;;;12.38;9.45;;;14.10;99.90;;;;;;4994239;28;20120;-47
2022/07/30 03:27:54;;;;;;;11.98;9.63;;;14.00;99.90;;;;;;4977238;28;20061;-47
2022/07/30 03:30:22;;;;;;;11.50;10.32;;;14.00;99.90;;;;;;4991397;28;20520;-46
2022/07/30 03:32:48;;;;;;;12.00;10.90;;;14.00;99.90;;;;;;4972253;28;20054;-48
2022/07/30 03:35:15;;;;;;;12.15;8.85;;;14.00;99.90;;;;;;4997567;28;20042;-46
2022/07/30 03:37:41;;;;;;;10.77;9.60;;;13.90;99.90;;;;;;4991203;28;20046;-46
2022/07/30 03:40:07;;;;;;;12.18;10.98;;;13.90;99.90;;;;;;4999617;28;20108;-47
2022/07/30 03:42:34;;;;;;;13.55;11.90;;;13.90;99.90;;;;;;4998152;28;20081;-48
2022/07/30 03:45:03;;;;;;;13.15;11.75;;;13.70;99.90;;;;;;4998548;28;20034;-47
2022/07/30 03:47:32;;;;;;;13.88;12.48;;;13.90;99.90;;;;;;4991175;28;20047;-47
2022/07/30 03:49:58;;;;;;;14.38;12.85;;;13.70;99.90;;;;;;4994766;28;20120;-46
2022/07/30 03:52:24;;;;;;;15.00;13.52;;;13.70;99.90;;;;;;4998319;28;20073;-48
2022/07/30 03:54:50;;;;;;;13.32;11.85;;;13.70;99.90;;;;;;4990954;28;20038;-46
2022/07/30 03:57:16;;;;;;;13.52;12.23;;;13.80;99.90;;;;;;4993705;28;20033;-47
2022/07/30 03:59:42;;;;;;;13.48;12.25;;;13.70;99.90;;;;;;4998979;28;20371;-49
2022/07/30 04:02:08;;;;;;;13.55;12.35;;;13.70;99.90;;;;;;4999043;28;20115;-51
2022/07/30 04:04:33;;;;;;;14.48;13.05;;;13.70;99.90;;;;;;4999560;28;20073;-45
2022/07/30 04:06:59;;;;;;;14.10;12.63;;;13.70;99.90;;;;;;4994058;28;20052;-48
2022/07/30 04:09:25;;;;;;;14.43;11.95;;;13.70;99.90;;;;;;4995596;28;20068;-46
2022/07/30 04:11:50;;;;;;;13.82;12.27;;;13.70;99.90;;;;;;4996997;28;20091;-48
2022/07/30 04:14:16;;;;;;;15.38;13.68;;;13.70;99.90;;;;;;4996903;28;20120;-46
2022/07/30 04:16:59;;;;;;;11.95;11.02;;;13.80;99.90;;;;;;4977578;28;20069;-49
2022/07/30 04:19:33;;;;;;;17.00;12.18;;;13.80;99.90;;;;;;4993715;28;20046;-47
2022/07/30 04:22:00;;;;;;;17.20;13.25;;;13.80;99.90;;;;;;4981788;28;20136;-47
2022/07/30 04:24:28;;;;;;;37.40;14.93;;;13.80;99.90;;;;;;4996705;28;20080;-52
2022/07/30 04:26:54;;;;;;;23.13;13.70;;;13.90;99.90;;;;;;4996739;28;20092;-48
2022/07/30 04:29:21;;;;;;;76.90;14.95;;;14.10;99.90;;;;;;4993636;28;20434;-47
2022/07/30 04:31:46;;;;;;;28.65;14.77;;;14.00;99.90;;;;;;4993083;28;20057;-47
2022/07/30 04:34:16;;;;;;;52.92;16.08;;;14.00;99.90;;;;;;4995510;28;20034;-47
2022/07/30 04:36:42;;;;;;;32.55;14.23;;;14.10;99.90;;;;;;4992218;28;20043;-47
2022/07/30 04:39:09;;;;;;;43.42;13.82;;;14.20;99.90;;;;;;4991295;28;20130;-50
2022/07/30 04:41:34;;;;;;;60.08;14.60;;;14.30;99.90;;;;;;4974867;28;20046;-50
2022/07/30 04:44:00;;;;;;;75.82;13.82;;;14.20;99.90;;;;;;4974663;28;20060;-49
2022/07/30 04:46:26;;;;;;;78.30;12.90;;;14.30;99.90;;;;;;4992049;28;20484;-48
2022/07/30 04:48:51;;;;;;;42.72;12.68;;;14.40;99.90;;;;;;4992595;28;20035;-49
2022/07/30 04:51:33;;;;;;;20.23;12.18;;;14.40;99.90;;;;;;4993711;28;20460;-50
2022/07/30 04:54:00;;;;;;;28.80;12.00;;;14.50;99.90;;;;;;4996793;28;20042;-46
2022/07/30 04:56:29;;;;;;;50.97;11.35;;;14.60;99.90;;;;;;4991903;28;20080;-51
2022/07/30 04:58:55;;;;;;;43.08;10.63;;;14.70;99.90;;;;;;4994084;28;20052;-50
2022/07/30 05:01:30;;;;;;;38.22;11.40;;;14.80;99.90;;;;;;4989191;28;20134;-49
2022/07/30 05:03:57;;;;;;;34.50;11.65;;;14.80;99.90;;;;;;4994320;28;20398;-49
2022/07/30 05:06:24;;;;;;;35.20;12.23;;;14.90;99.90;;;;;;4993832;28;20121;-48
2022/07/30 05:08:50;;;;;;;26.73;11.68;;;15.20;99.90;;;;;;4996271;28;20458;-48
2022/07/30 05:11:16;;;;;;;20.45;11.18;;;15.10;99.90;;;;;;4971587;28;20802;-52
2022/07/30 05:13:47;;;;;;;39.88;12.45;;;15.20;99.90;;;;;;4994889;28;20045;-48
2022/07/30 05:16:14;;;;;;;18.38;11.20;;;15.20;99.90;;;;;;4990025;28;20061;-45
2022/07/30 05:18:39;;;;;;;32.42;11.75;;;15.40;99.90;;;;;;4990170;28;20042;-49
2022/07/30 05:21:05;;;;;;;21.77;11.77;;;15.40;99.90;;;;;;4988667;28;20041;-52
2022/07/30 05:23:34;;;;;;;23.95;12.18;;;15.50;99.90;;;;;;4990902;28;20038;-47
2022/07/30 05:26:00;;;;;;;29.35;11.52;;;15.50;99.90;;;;;;4995746;28;20049;-48
2022/07/30 05:28:26;;;;;;;14.80;11.90;;;15.60;99.90;;;;;;4989954;28;20656;-48
2022/07/30 05:30:53;;;;;;;32.22;11.18;;;15.70;99.90;;;;;;4990242;28;20394;-48
2022/07/30 05:33:22;;;;;;;17.25;11.48;;;16.00;99.90;;;;;;4992505;28;20050;-47
2022/07/30 05:35:48;;;;;;;16.88;12.38;;;15.90;99.90;;;;;;4991863;28;20125;-48
2022/07/30 05:38:14;;;;;;;29.27;11.23;;;16.10;99.90;;;;;;4995868;28;20088;-48
2022/07/30 05:40:40;;;;;;;32.92;11.80;;;16.10;99.90;;;;;;4992245;28;20620;-48
2022/07/30 05:43:05;;;;;;;29.05;10.23;;;16.20;99.90;;;;;;4992487;28;20050;-48
2022/07/30 05:45:31;;;;;;;46.15;10.30;;;16.20;99.90;;;;;;4992019;28;20038;-45
2022/07/30 05:47:57;;;;;;;21.48;9.75;;;16.30;99.90;;;;;;4988874;28;20118;-47
2022/07/30 05:50:22;;;;;;;22.70;10.48;;;16.30;99.90;;;;;;4991259;28;20042;-47
2022/07/30 05:52:48;;;;;;;12.70;10.05;;;16.30;99.90;;;;;;4990582;28;20581;-49
2022/07/30 05:55:14;;;;;;;19.05;10.45;;;16.40;99.90;;;;;;4998067;28;20038;-46
2022/07/30 05:57:42;;;;;;;26.15;10.02;;;16.50;99.90;;;;;;4981603;28;20107;-47
2022/07/30 06:00:11;;;;;;;21.33;9.38;;;16.60;99.90;;;;;;4995859;28;20034;-47
2022/07/30 06:02:40;;;;;;;25.20;9.82;;;16.60;99.90;;;;;;4991239;28;20136;-46
2022/07/30 06:05:07;;;;;;;20.55;9.88;;;16.70;99.90;;;;;;4989216;28;20124;-51
2022/07/30 06:07:33;;;;;;;27.27;9.90;;;16.80;99.90;;;;;;4988945;28;20034;-45
2022/07/30 06:10:00;;;;;;;14.80;9.80;;;16.80;99.90;;;;;;4997079;28;20047;-47
2022/07/30 06:12:29;;;;;;;26.73;10.35;;;16.90;99.90;;;;;;4994229;28;20046;-46
2022/07/30 06:14:55;;;;;;;13.00;10.93;;;17.00;99.90;;;;;;4992123;28;20092;-45
2022/07/30 06:17:21;;;;;;;15.85;10.23;;;17.10;99.90;;;;;;4994405;28;20039;-49
2022/07/30 06:19:47;;;;;;;16.58;11.40;;;17.30;99.90;;;;;;4988894;28;20411;-46
2022/07/30 06:22:13;;;;;;;14.13;11.23;;;17.30;99.90;;;;;;4990980;28;20050;-49
2022/07/30 06:24:39;;;;;;;12.75;10.57;;;17.50;99.90;;;;;;4994008;28;20096;-49
2022/07/30 06:27:04;;;;;;;11.43;10.30;;;17.60;99.90;;;;;;5001172;28;20045;-47
2022/07/30 06:29:30;;;;;;;16.52;9.43;;;17.80;99.90;;;;;;4993705;28;20046;-47
2022/07/30 06:31:56;;;;;;;11.20;10.02;;;17.80;99.90;;;;;;4997469;28;20121;-51
2022/07/30 06:34:22;;;;;;;10.68;9.70;;;17.80;99.90;;;;;;4996864;28;20057;-49
2022/07/30 06:36:48;;;;;;;12.05;10.18;;;17.90;99.90;;;;;;4997625;28;20050;-47
2022/07/30 06:39:13;;;;;;;10.55;9.55;;;18.10;99.90;;;;;;4999985;28;20086;-47
2022/07/30 06:41:39;;;;;;;10.35;9.32;;;18.10;99.90;;;;;;4993787;28;20050;-47
2022/07/30 06:44:04;;;;;;;9.55;8.75;;;18.20;99.90;;;;;;4997760;28;20508;-47
2022/07/30 06:46:30;;;;;;;10.43;9.43;;;18.30;99.90;;;;;;4996180;28;20061;-50
2022/07/30 06:48:55;;;;;;;9.90;9.00;;;18.30;99.90;;;;;;5007302;28;20113;-46
2022/07/30 06:51:21;;;;;;;9.73;8.82;;;18.30;99.90;;;;;;5003074;28;20050;-47
2022/07/30 06:53:47;;;;;;;10.93;9.93;;;18.30;99.90;;;;;;5003507;28;20366;-47
2022/07/30 06:56:13;;;;;;;10.68;9.68;;;18.40;99.90;;;;;;5004598;28;20041;-46
2022/07/30 06:58:38;;;;;;;11.18;10.02;;;18.60;99.90;;;;;;5004628;28;20050;-47
2022/07/30 07:01:04;;;;;;;10.50;9.55;;;18.70;99.90;;;;;;5003903;28;20128;-49
2022/07/30 07:03:30;;;;;;;11.15;10.10;;;18.80;99.90;;;;;;5001807;28;20144;-49
2022/07/30 07:05:55;;;;;;;11.73;10.73;;;19.10;99.90;;;;;;5002860;28;20049;-47
2022/07/30 07:08:21;;;;;;;11.98;10.80;;;19.30;99.90;;;;;;5007263;28;20048;-46
2022/07/30 07:10:47;;;;;;;12.27;10.98;;;19.70;99.90;;;;;;4996472;28;20096;-47
2022/07/30 07:13:13;;;;;;;12.65;10.80;;;20.10;99.90;;;;;;5001836;28;20509;-47
2022/07/30 07:15:38;;;;;;;11.52;9.52;;;20.30;99.90;;;;;;4985860;28;20202;-47
2022/07/30 07:18:05;;;;;;;10.43;9.45;;;20.40;99.90;;;;;;5006754;28;20120;-46
2022/07/30 07:20:31;;;;;;;11.25;9.60;;;20.50;99.90;;;;;;5000646;28;20517;-50
2022/07/30 07:22:57;;;;;;;10.75;9.65;;;20.50;99.90;;;;;;5012900;28;20061;-47
2022/07/30 07:25:22;;;;;;;9.60;8.70;;;20.50;99.90;;;;;;5003143;28;20386;-51
2022/07/30 07:27:48;;;;;;;10.93;9.32;;;20.50;99.90;;;;;;5005411;28;20413;-46
2022/07/30 07:30:14;;;;;;;10.02;8.93;;;20.70;99.90;;;;;;4998850;28;20145;-45
2022/07/30 07:32:39;;;;;;;9.93;8.95;;;21.00;99.90;;;;;;5005637;28;20117;-47
2022/07/30 07:35:05;;;;;;;8.70;7.88;;;21.10;99.90;;;;;;5005377;28;20413;-49
2022/07/30 07:37:31;;;;;;;9.57;8.68;;;21.20;99.90;;;;;;5001275;28;20038;-48
2022/07/30 07:39:57;;;;;;;8.75;7.97;;;21.20;99.90;;;;;;5004359;28;20125;-49
2022/07/30 07:42:23;;;;;;;9.13;8.32;;;21.20;99.90;;;;;;5004118;28;20045;-48
2022/07/30 07:44:48;;;;;;;9.15;8.13;;;21.10;99.90;;;;;;5004933;28;20037;-47
2022/07/30 07:47:14;;;;;;;8.55;7.30;;;21.10;99.90;;;;;;5003658;28;20509;-47
2022/07/30 07:49:40;;;;;;;9.32;8.40;;;21.30;99.90;;;;;;5003194;28;20082;-46
2022/07/30 07:52:06;;;;;;;11.02;8.13;;;21.60;99.90;;;;;;5001720;28;20050;-51
2022/07/30 07:54:31;;;;;;;9.18;7.88;;;21.70;99.90;;;;;;5000996;28;20728;-47
2022/07/30 07:56:57;;;;;;;10.00;7.63;;;22.00;99.90;;;;;;5000301;28;20054;-47
2022/07/30 07:59:23;;;;;;;8.93;8.10;;;22.00;99.90;;;;;;5001612;28;20053;-48
2022/07/30 08:01:49;;;;;;;8.60;7.85;;;22.30;99.90;;;;;;5006969;28;20065;-47
2022/07/30 08:04:15;;;;;;;10.85;7.75;;;22.40;99.90;;;;;;4997565;28;20068;-51
2022/07/30 08:06:40;;;;;;;11.13;8.98;;;22.60;99.90;;;;;;4994074;28;20494;-47
2022/07/30 08:09:06;;;;;;;11.25;8.02;;;22.50;99.90;;;;;;4995424;28;20166;-48
2022/07/30 08:11:31;;;;;;;11.98;7.07;;;22.20;99.90;;;;;;5002352;28;20037;-46
2022/07/30 08:13:57;;;;;;;8.30;6.78;;;22.20;99.90;;;;;;4999233;28;20097;-49
2022/07/30 08:16:23;;;;;;;9.82;7.40;;;22.10;99.90;;;;;;4978940;28;20452;-48
2022/07/30 08:18:48;;;;;;;7.97;7.18;;;22.60;99.90;;;;;;4998139;28;20073;-46
2022/07/30 08:21:14;;;;;;;9.25;6.63;;;22.90;99.90;;;;;;4995536;28;20097;-47
2022/07/30 08:23:40;;;;;;;9.63;6.60;;;23.30;99.90;;;;;;4994400;28;20138;-47
2022/07/30 08:26:05;;;;;;;8.32;6.25;;;23.50;99.90;;;;;;5001426;28;20048;-51
2022/07/30 08:28:31;;;;;;;7.28;6.07;;;23.30;99.90;;;;;;4998022;28;20038;-47
2022/07/30 08:30:57;;;;;;;7.57;6.50;;;23.10;99.90;;;;;;4995768;28;20045;-46
2022/07/30 08:33:22;;;;;;;7.88;5.57;;;23.10;99.90;;;;;;4997793;28;20049;-50
2022/07/30 08:35:48;;;;;;;8.05;5.30;;;23.10;99.90;;;;;;4997264;28;20050;-48
2022/07/30 08:38:14;;;;;;;12.23;5.50;;;22.80;99.90;;;;;;5002869;28;20096;-49
2022/07/30 08:40:39;;;;;;;6.97;4.95;;;22.90;99.90;;;;;;4999896;28;20058;-49
2022/07/30 08:43:06;;;;;;;9.25;4.60;;;23.10;99.90;;;;;;4999153;28;20042;-47
2022/07/30 08:45:33;;;;;;;7.90;4.20;;;23.20;99.90;;;;;;4999306;28;20035;-49
2022/07/30 08:48:00;;;;;;;7.68;4.20;;;23.40;99.90;;;;;;5004711;28;20124;-51
2022/07/30 08:50:27;;;;;;;8.18;3.80;;;23.60;99.90;;;;;;4997137;28;20043;-48
2022/07/30 08:52:54;;;;;;;;;;;23.90;99.90;;;;;;4984438;28;20401;-47
2022/07/30 08:55:24;;;;;;;9.00;3.65;;;24.00;99.90;;;;;;4980755;28;20569;-53
2022/07/30 08:57:50;;;;;;;7.70;3.97;;;24.20;99.90;;;;;;4993910;28;20046;-48
2022/07/30 09:00:17;;;;;;;6.68;4.28;;;24.00;99.90;;;;;;5009750;28;20049;-50
2022/07/30 09:02:43;;;;;;;6.65;3.72;;;24.30;99.90;;;;;;5009497;28;20073;-48
2022/07/30 09:05:10;;;;;;;5.07;3.70;;;24.30;99.90;;;;;;5002819;28;20042;-46
2022/07/30 09:07:36;;;;;;;8.75;4.40;;;24.50;99.90;;;;;;5000983;28;20125;-47
2022/07/30 09:10:07;;;;;;;9.57;7.17;;;24.30;99.90;;;;;;5002468;28;20052;-50
2022/07/30 09:12:33;;;;;;;8.35;6.38;;;24.50;99.90;;;;;;5001147;28;20540;-46
2022/07/30 09:15:05;;;;;;;6.23;3.40;;;25.00;99.90;;;;;;4998025;28;20034;-46
2022/07/30 09:17:48;;;;;;;7.63;3.40;;;24.50;99.90;;;;;;4998502;28;20052;-49
2022/07/30 09:20:14;;;;;;;7.35;3.17;;;24.60;99.90;;;;;;5003635;28;20095;-46
2022/07/30 09:22:46;;;;;;;5.45;2.65;;;24.70;99.90;;;;;;5004318;28;20452;-48
2022/07/30 09:25:12;;;;;;;5.88;3.30;;;24.70;99.90;;;;;;4999680;28;20041;-56
2022/07/30 09:27:48;;;;;;;5.63;2.90;;;24.80;99.90;;;;;;5007935;28;20098;-63
2022/07/30 09:30:15;;;;;;;4.15;2.80;;;25.10;99.90;;;;;;5002076;28;20121;-48
2022/07/30 09:32:52;;;;;;;5.45;3.20;;;24.90;99.90;;;;;;5003310;28;20042;-51
2022/07/30 09:35:18;;;;;;;6.10;3.28;;;24.60;99.90;;;;;;5004346;28;20084;-48
2022/07/30 09:37:45;;;;;;;3.40;2.95;;;24.80;99.90;;;;;;5000859;28;20070;-46
2022/07/30 09:40:12;;;;;;;4.57;3.00;;;24.80;99.90;;;;;;5000552;28;20064;-51
2022/07/30 09:42:38;;;;;;;6.93;2.97;;;25.10;99.90;;;;;;4999772;28;20046;-51
2022/07/30 09:45:10;;;;;;;5.13;2.80;;;25.10;99.90;;;;;;5001967;28;20061;-50
2022/07/30 09:47:49;;;;;;;6.97;3.35;;;25.10;99.90;;;;;;4998961;28;20042;-50
2022/07/30 09:50:18;;;;;;;6.82;3.80;;;25.20;99.90;;;;;;4995759;28;20045;-50
2022/07/30 09:52:45;;;;;;;6.18;3.80;;;25.00;99.90;;;;;;4977678;28;20046;-50
2022/07/30 09:55:12;;;;;;;9.88;4.20;;;25.50;99.90;;;;;;4989623;28;20056;-51
2022/07/30 09:57:59;;;;;;;5.80;3.50;;;25.50;99.90;;;;;;4993546;28;20046;-48
2022/07/30 10:00:27;;;;;;;6.53;3.30;;;25.60;99.90;;;;;;4996041;28;20440;-51
2022/07/30 10:02:53;;;;;;;6.85;3.33;;;25.60;99.90;;;;;;4997308;28;20057;-51
2022/07/30 10:05:23;;;;;;;6.50;3.70;;;25.60;99.90;;;;;;4993826;28;20042;-46
2022/07/30 10:07:54;;;;;;;5.47;3.20;;;25.70;99.90;;;;;;4996981;28;20846;-49
2022/07/30 10:10:26;;;;;;;5.88;3.40;;;25.90;99.90;;;;;;4994380;28;20123;-47
2022/07/30 10:12:59;;;;;;;7.68;3.72;;;25.60;99.90;;;;;;5000415;28;20529;-48
2022/07/30 10:15:30;;;;;;;18.42;13.40;;;25.40;99.90;;;;;;5001780;28;20042;-47
2022/07/30 10:17:57;;;;;;;11.38;4.38;;;25.60;99.90;;;;;;5003545;28;20046;-50
2022/07/30 10:20:23;;;;;;;8.10;3.60;;;25.60;99.90;;;;;;5005261;28;20120;-48
2022/07/30 10:22:49;;;;;;;6.55;3.55;;;25.70;99.90;;;;;;5003140;28;20220;-50
2022/07/30 10:25:22;;;;;;;5.28;3.03;;;25.70;99.90;;;;;;5000082;28;20394;-47
2022/07/30 10:27:48;;;;;;;7.90;3.50;;;25.70;99.90;;;;;;5005378;28;20125;-48
2022/07/30 10:30:15;;;;;;;5.07;2.95;;;25.60;99.90;;;;;;4987715;28;20050;-47
2022/07/30 10:32:42;;;;;;;6.63;3.22;;;25.90;99.90;;;;;;5001653;28;20518;-51
2022/07/30 10:35:08;;;;;;;6.40;2.40;;;25.80;99.90;;;;;;5004433;28;20168;-48
2022/07/30 10:37:46;;;;;;;5.05;2.75;;;25.50;99.90;;;;;;5007401;28;20041;-47
2022/07/30 10:40:17;;;;;;;;;;;25.70;99.90;;;;;;5006424;28;20054;-50
2022/07/30 10:43:05;;;;;;;5.50;2.47;;;25.30;99.90;;;;;;5002202;28;20005;-47
2022/07/30 10:45:56;;;;;;;4.47;2.53;;;25.80;99.90;;;;;;5008973;28;20029;-47
2022/07/30 10:48:21;;;;;;;4.22;2.08;;;25.70;99.90;;;;;;5001223;28;20038;-47
2022/07/30 10:50:57;;;;;;;5.32;2.40;;;26.00;99.90;;;;;;4999740;28;20057;-50
2022/07/30 10:53:45;;;;;;;6.47;2.10;;;25.60;99.90;;;;;;4989573;28;20552;-50
2022/07/30 10:56:22;;;;;;;4.63;2.20;;;25.50;99.90;;;;;;5007887;28;20385;-47
2022/07/30 10:59:01;;;;;;;6.85;2.83;;;25.20;99.90;;;;;;5007391;28;20117;-46
2022/07/30 11:01:46;;;;;;;6.72;2.60;;;25.10;99.90;;;;;;5004539;28;20401;-51
2022/07/30 11:04:25;;;;;;;5.43;2.30;;;24.90;99.90;;;;;;5005061;28;20038;-48
2022/07/30 11:06:51;;;;;;;5.97;2.47;;;25.10;99.90;;;;;;5002252;28;20066;-47
2022/07/30 11:09:38;;;;;;;10.45;8.75;;;25.60;99.90;;;;;;4997115;28;20450;-50
2022/07/30 11:12:05;;;;;;;5.50;2.90;;;25.60;99.90;;;;;;5000395;28;20069;-50
2022/07/30 11:14:46;;;;;;;3.10;2.17;;;25.40;99.90;;;;;;4998816;28;20439;-49
2022/07/30 11:17:13;;;;;;;5.10;2.10;;;25.40;99.50;;;;;;4998544;28;20073;-50
2022/07/30 11:20:05;;;;;;;8.60;2.40;;;25.40;99.90;;;;;;4985145;28;20034;-48
2022/07/30 11:22:37;;;;;;;4.15;2.20;;;25.70;99.90;;;;;;5003174;28;20061;-49
2022/07/30 11:25:04;;;;;;;6.43;2.28;;;26.00;99.90;;;;;;5001837;28;20044;-45
2022/07/30 11:27:40;;;;;;;5.97;2.40;;;26.50;99.90;;;;;;4994849;28;20049;-45
2022/07/30 11:30:26;;;;;;;4.82;2.25;;;26.90;99.70;;;;;;4996164;28;20437;-46
2022/07/30 11:32:55;;;;;;;4.78;2.30;;;26.70;99.40;;;;;;4989854;28;20409;-50
2022/07/30 11:35:24;;;;;;;3.80;2.03;;;26.90;98.90;;;;;;5001350;28;20077;-48
2022/07/30 11:38:00;;;;;;;4.70;2.38;;;27.10;98.40;;;;;;4995515;28;20038;-50
2022/07/30 11:40:40;;;;;;;4.15;2.08;;;27.20;98.50;;;;;;5002125;28;20034;-50
2022/07/30 11:43:24;;;;;;;3.65;1.98;;;27.60;98.70;;;;;;5000094;28;20156;-49
2022/07/30 11:46:06;;;;;;;2.97;2.03;;;27.70;98.20;;;;;;5000795;28;20074;-46
2022/07/30 11:48:32;;;;;;;4.65;2.22;;;27.90;97.50;;;;;;5004763;28;20447;-50
2022/07/30 11:50:58;;;;;;;5.85;2.10;;;27.90;95.30;;;;;;5002793;28;20049;-48
2022/07/30 11:53:26;;;;;;;4.45;2.20;;;27.90;95.00;;;;;;5007371;28;20085;-47
2022/07/30 11:55:58;;;;;;;6.13;2.10;;;27.70;96.10;;;;;;5005952;28;20046;-49
2022/07/30 11:58:30;;;;;;;5.38;2.25;;;27.70;97.00;;;;;;5007263;28;20168;-46
2022/07/30 12:01:02;;;;;;;4.93;2.10;;;27.80;95.10;;;;;;5002408;28;20478;-47
2022/07/30 12:03:32;;;;;;;6.00;1.83;;;27.20;95.20;;;;;;5003005;28;20046;-47
2022/07/30 12:06:08;;;;;;;4.88;1.98;;;26.90;95.30;;;;;;5007512;28;20532;-46
2022/07/30 12:08:51;;;;;;;5.57;2.30;;;26.60;96.40;;;;;;5007710;28;20129;-46
2022/07/30 12:11:19;;;;;;;6.07;2.30;;;26.80;95.70;;;;;;5002509;28;20048;-50
2022/07/30 12:13:56;;;;;;;5.88;1.90;;;26.80;95.30;;;;;;5008250;28;20052;-47
2022/07/30 12:16:22;;;;;;;;;;;26.80;95.30;;;;;;5002651;28;20050;-46
2022/07/30 12:18:47;;;;;;;2.97;1.70;;;26.50;94.70;;;;;;4985681;28;19929;-47
2022/07/30 12:21:17;;;;;;;2.83;1.77;;;26.80;95.80;;;;;;4987435;28;20493;-48
2022/07/30 12:23:57;;;;;;;6.05;1.80;;;27.10;95.60;;;;;;4994384;28;20082;-47
2022/07/30 12:26:25;;;;;;;6.10;2.20;;;27.20;95.20;;;;;;4996776;28;20056;-49
2022/07/30 12:28:51;;;;;;;4.78;1.98;;;27.10;93.90;;;;;;4997725;28;20474;-49
2022/07/30 12:31:17;;;;;;;3.78;1.88;;;27.10;93.80;;;;;;4999824;28;20053;-50
2022/07/30 12:33:43;;;;;;;4.00;1.77;;;27.00;93.90;;;;;;4994457;28;20474;-48
2022/07/30 12:36:09;;;;;;;5.25;1.38;;;27.10;94.40;;;;;;5002723;28;20057;-47
2022/07/30 12:38:47;;;;;;;3.80;1.83;;;27.30;94.30;;;;;;4983810;28;20101;-46
2022/07/30 12:41:13;;;;;;;4.65;1.77;;;27.00;93.60;;;;;;5006593;28;20484;-47
2022/07/30 12:43:52;;;;;;;3.22;1.55;;;26.40;93.40;;;;;;4997189;28;20080;-48
2022/07/30 12:46:25;;;;;;;2.72;1.83;;;26.50;93.00;;;;;;5003728;28;20385;-51
2022/07/30 12:49:05;;;;;;;4.47;1.70;;;26.70;93.40;;;;;;5005456;28;20042;-52